createdAt,value
2022-08-22T00:00:13.924Z,16.30
2022-08-22T00:01:13.930Z,17.89
2022-08-22T00:02:13.979Z,17.30
2022-08-22T00:02:42.591Z,17.30
2022-08-22T00:02:56.260Z,17.10
2022-08-22T00:03:02.492Z,17.89
2022-08-22T00:03:04.030Z,17.50
2022-08-22T00:03:06.691Z,17.30
2022-08-22T00:03:18.405Z,17.69
2022-08-22T00:04:14.871Z,17.10
2022-08-22T00:05:13.860Z,17.10
2022-08-22T00:06:13.880Z,16.70
2022-08-22T00:07:13.847Z,18.09
2022-08-22T00:08:13.850Z,17.50
2022-08-22T00:09:13.782Z,17.30
2022-08-22T00:10:22.788Z,17.50
2022-08-22T00:11:14.812Z,18.29
2022-08-22T00:12:13.840Z,16.90
2022-08-22T00:13:13.770Z,18.49
2022-08-22T00:14:13.765Z,17.50
2022-08-22T00:15:42.464Z,17.50
2022-08-22T00:16:14.762Z,17.89
2022-08-22T00:17:13.750Z,17.50
2022-08-22T00:18:13.721Z,17.89
2022-08-22T00:19:13.768Z,17.30
2022-08-22T00:20:13.694Z,19.09
2022-08-22T00:21:13.693Z,18.49
2022-08-22T00:22:13.670Z,17.50
2022-08-22T00:23:13.654Z,16.70
2022-08-22T00:24:13.691Z,17.50
2022-08-22T00:25:24.783Z,19.09
2022-08-22T00:26:14.697Z,17.30
2022-08-22T00:27:13.621Z,17.10
2022-08-22T00:28:13.631Z,17.50
2022-08-22T00:29:13.579Z,17.69
2022-08-22T00:30:13.561Z,17.30
2022-08-22T00:31:13.577Z,17.69
2022-08-22T00:32:13.559Z,17.10
2022-08-22T00:33:13.552Z,17.50
2022-08-22T00:34:13.519Z,18.49
2022-08-22T00:35:13.531Z,17.10
2022-08-22T00:36:13.533Z,17.10
2022-08-22T00:37:13.532Z,17.30
2022-08-22T00:38:13.503Z,18.29
2022-08-22T00:39:13.502Z,17.30
2022-08-22T00:40:13.563Z,17.89
2022-08-22T00:41:13.562Z,17.89
2022-08-22T00:42:13.474Z,17.89
2022-08-22T00:43:13.470Z,17.69
2022-08-22T00:44:13.443Z,17.69
2022-08-22T00:45:13.425Z,17.50
2022-08-22T00:46:13.445Z,17.69
2022-08-22T00:47:13.412Z,17.30
2022-08-22T00:48:14.581Z,18.29
2022-08-22T00:49:13.372Z,16.10
2022-08-22T00:50:13.382Z,17.30
2022-08-22T00:51:13.373Z,18.69
2022-08-22T00:52:13.351Z,17.30
2022-08-22T00:53:13.343Z,18.29
2022-08-22T00:54:17.576Z,17.50
2022-08-22T00:55:13.369Z,16.70
2022-08-22T00:56:13.380Z,16.70
2022-08-22T00:57:13.282Z,17.89
2022-08-22T00:58:13.369Z,18.09
2022-08-22T00:59:22.882Z,17.30
2022-08-22T01:00:14.262Z,17.50
2022-08-22T01:01:13.360Z,18.09
2022-08-22T01:02:13.297Z,17.89
2022-08-22T01:03:13.223Z,18.09
2022-08-22T01:04:13.226Z,18.69
2022-08-22T01:05:13.243Z,16.90
2022-08-22T01:06:13.225Z,17.50
2022-08-22T01:07:13.194Z,17.69
2022-08-22T01:08:13.173Z,17.50
2022-08-22T01:09:13.173Z,16.90
2022-08-22T01:10:13.172Z,18.49
2022-08-22T01:11:13.152Z,18.09
2022-08-22T01:12:13.162Z,17.69
2022-08-22T01:13:13.131Z,16.70
2022-08-22T01:14:13.142Z,17.69
2022-08-22T01:15:13.093Z,17.89
2022-08-22T01:16:13.106Z,17.69
2022-08-22T01:17:13.076Z,18.49
2022-08-22T01:18:13.083Z,18.69
2022-08-22T01:19:13.013Z,17.50
2022-08-22T01:20:13.023Z,17.50
2022-08-22T01:21:13.055Z,18.69
2022-08-22T01:22:13.033Z,17.89
2022-08-22T01:23:12.995Z,17.69
2022-08-22T01:24:12.984Z,17.89
2022-08-22T01:25:12.963Z,17.89
2022-08-22T01:26:12.954Z,17.89
2022-08-22T01:27:12.941Z,18.09
2022-08-22T01:28:12.962Z,17.89
2022-08-22T01:29:12.954Z,17.89
2022-08-22T01:30:12.924Z,17.69
2022-08-22T01:31:12.903Z,18.09
2022-08-22T01:32:12.908Z,18.09
2022-08-22T01:33:12.921Z,17.50
2022-08-22T01:34:13.237Z,17.69
2022-08-22T01:35:12.903Z,17.69
2022-08-22T01:36:12.874Z,18.09
2022-08-22T01:37:12.851Z,17.69
2022-08-22T01:38:12.861Z,18.49
2022-08-22T01:39:12.817Z,17.89
2022-08-22T01:40:12.989Z,17.50
2022-08-22T01:41:12.814Z,18.09
2022-08-22T01:42:12.814Z,18.29
2022-08-22T01:43:12.757Z,16.90
2022-08-22T01:44:12.744Z,18.89
2022-08-22T01:45:12.724Z,18.09
2022-08-22T01:46:12.745Z,17.69
2022-08-22T01:47:13.755Z,18.09
2022-08-22T01:48:12.890Z,18.09
2022-08-22T01:49:12.750Z,18.09
2022-08-22T01:50:12.739Z,18.49
2022-08-22T01:51:12.707Z,17.69
2022-08-22T01:52:12.732Z,18.09
2022-08-22T01:53:12.735Z,19.28
2022-08-22T01:54:12.675Z,17.50
2022-08-22T01:55:12.664Z,18.89
2022-08-22T01:56:12.641Z,17.50
2022-08-22T01:57:12.651Z,17.89
2022-08-22T01:58:12.594Z,17.89
2022-08-22T01:59:12.605Z,18.49
2022-08-22T02:00:12.578Z,18.29
2022-08-22T02:01:12.700Z,19.48
2022-08-22T02:02:12.625Z,18.49
2022-08-22T02:03:12.587Z,18.49
2022-08-22T02:04:12.604Z,19.09
2022-08-22T02:05:12.535Z,18.49
2022-08-22T02:06:14.503Z,19.48
2022-08-22T02:07:12.515Z,18.29
2022-08-22T02:08:12.535Z,18.49
2022-08-22T02:09:12.522Z,18.49
2022-08-22T02:10:12.575Z,18.49
2022-08-22T02:11:12.513Z,18.09
2022-08-22T02:12:21.357Z,17.69
2022-08-22T02:13:13.479Z,17.89
2022-08-22T02:14:12.476Z,18.09
2022-08-22T02:15:12.446Z,19.09
2022-08-22T02:16:12.435Z,19.28
2022-08-22T02:17:12.454Z,18.49
2022-08-22T02:18:12.434Z,18.09
2022-08-22T02:19:12.405Z,18.49
2022-08-22T02:20:12.404Z,18.29
2022-08-22T02:21:12.398Z,17.89
2022-08-22T02:22:12.434Z,18.49
2022-08-22T02:23:12.385Z,17.69
2022-08-22T02:24:12.386Z,18.69
2022-08-22T02:25:12.365Z,18.89
2022-08-22T02:26:12.338Z,18.69
2022-08-22T02:27:12.315Z,18.49
2022-08-22T02:28:12.346Z,18.49
2022-08-22T02:29:12.305Z,18.09
2022-08-22T02:30:12.296Z,19.09
2022-08-22T02:31:16.532Z,17.89
2022-08-22T02:32:12.276Z,17.50
2022-08-22T02:33:12.305Z,17.69
2022-08-22T02:34:12.256Z,19.28
2022-08-22T02:35:12.236Z,18.49
2022-08-22T02:36:12.216Z,18.89
2022-08-22T02:37:12.203Z,18.69
2022-08-22T02:38:12.236Z,19.28
2022-08-22T02:39:12.186Z,18.49
2022-08-22T02:40:12.255Z,18.69
2022-08-22T02:41:12.166Z,19.09
2022-08-22T02:42:12.158Z,18.49
2022-08-22T02:43:12.159Z,18.29
2022-08-22T02:44:12.126Z,18.29
2022-08-22T02:45:12.137Z,18.89
2022-08-22T02:46:12.125Z,18.49
2022-08-22T02:47:12.137Z,18.49
2022-08-22T02:48:12.131Z,18.69
2022-08-22T02:49:12.133Z,18.69
2022-08-22T02:50:12.821Z,19.09
2022-08-22T02:51:12.079Z,18.89
2022-08-22T02:52:12.060Z,19.09
2022-08-22T02:53:12.070Z,18.49
2022-08-22T02:54:12.030Z,19.09
2022-08-22T02:55:12.027Z,19.09
2022-08-22T02:56:12.046Z,19.09
2022-08-22T02:57:14.416Z,20.28
2022-08-22T02:58:12.048Z,19.48
2022-08-22T02:59:11.976Z,19.68
2022-08-22T03:00:31.240Z,19.88
2022-08-22T03:01:13.006Z,19.09
2022-08-22T03:02:11.989Z,19.68
2022-08-22T03:03:11.947Z,19.88
2022-08-22T03:04:11.938Z,19.48
2022-08-22T03:05:11.936Z,19.68
2022-08-22T03:06:11.928Z,19.88
2022-08-22T03:07:11.915Z,19.68
2022-08-22T03:08:12.874Z,20.08
2022-08-22T03:09:11.886Z,20.87
2022-08-22T03:10:11.848Z,20.08
2022-08-22T03:11:11.828Z,20.28
2022-08-22T03:12:11.817Z,20.08
2022-08-22T03:13:11.857Z,20.08
2022-08-22T03:14:11.807Z,20.08
2022-08-22T03:15:11.777Z,20.48
2022-08-22T03:16:11.772Z,20.68
2022-08-22T03:17:11.758Z,20.48
2022-08-22T03:18:11.818Z,20.48
2022-08-22T03:19:13.192Z,20.08
2022-08-22T03:20:12.760Z,20.68
2022-08-22T03:21:11.722Z,19.68
2022-08-22T03:22:11.736Z,20.48
2022-08-22T03:23:11.707Z,20.68
2022-08-22T03:24:11.790Z,20.08
2022-08-22T03:25:11.727Z,20.48
2022-08-22T03:26:11.688Z,21.27
2022-08-22T03:27:11.707Z,21.47
2022-08-22T03:28:11.686Z,21.47
2022-08-22T03:29:11.669Z,20.87
2022-08-22T03:30:11.679Z,20.68
2022-08-22T03:31:11.661Z,20.87
2022-08-22T03:32:11.637Z,21.07
2022-08-22T03:33:11.608Z,21.27
2022-08-22T03:34:11.608Z,20.68
2022-08-22T03:35:11.590Z,20.87
2022-08-22T03:36:11.579Z,20.87
2022-08-22T03:37:11.586Z,21.07
2022-08-22T03:38:11.568Z,21.07
2022-08-22T03:39:16.582Z,21.07
2022-08-22T03:40:12.592Z,21.07
2022-08-22T03:41:11.538Z,20.87
2022-08-22T03:42:11.557Z,21.27
2022-08-22T03:43:11.502Z,21.47
2022-08-22T03:44:11.472Z,20.87
2022-08-22T03:45:11.487Z,21.27
2022-08-22T03:46:11.499Z,21.27
2022-08-22T03:47:11.497Z,20.68
2022-08-22T03:48:11.488Z,20.87
2022-08-22T03:49:11.487Z,21.87
2022-08-22T03:50:11.455Z,21.27
2022-08-22T03:51:11.428Z,21.27
2022-08-22T03:52:11.481Z,21.47
2022-08-22T03:53:18.718Z,21.47
2022-08-22T03:54:12.412Z,21.27
2022-08-22T03:55:11.378Z,20.68
2022-08-22T03:56:11.356Z,20.87
2022-08-22T03:57:11.379Z,21.27
2022-08-22T03:58:19.144Z,20.68
2022-08-22T03:59:12.385Z,20.87
2022-08-22T04:00:11.371Z,21.07
2022-08-22T04:01:11.350Z,21.07
2022-08-22T04:02:33.420Z,21.87
2022-08-22T04:03:12.339Z,22.47
2022-08-22T04:04:11.276Z,20.87
2022-08-22T04:05:11.279Z,21.47
2022-08-22T04:06:11.563Z,22.07
2022-08-22T04:07:15.809Z,20.48
2022-08-22T04:08:12.963Z,21.47
2022-08-22T04:09:11.228Z,21.67
2022-08-22T04:10:11.199Z,21.47
2022-08-22T04:11:11.199Z,21.67
2022-08-22T04:12:11.188Z,19.68
2022-08-22T04:13:11.217Z,21.07
2022-08-22T04:14:11.178Z,21.27
2022-08-22T04:15:11.229Z,22.27
2022-08-22T04:16:11.157Z,20.87
2022-08-22T04:17:11.159Z,22.86
2022-08-22T04:18:11.126Z,20.87
2022-08-22T04:19:11.098Z,21.07
2022-08-22T04:20:11.078Z,22.66
2022-08-22T04:21:11.098Z,23.26
2022-08-22T04:22:11.128Z,20.48
2022-08-22T04:23:11.103Z,21.07
2022-08-22T04:24:11.068Z,21.67
2022-08-22T04:25:11.061Z,21.27
2022-08-22T04:26:12.478Z,21.27
2022-08-22T04:27:11.055Z,21.67
2022-08-22T04:28:11.019Z,21.67
2022-08-22T04:29:11.039Z,21.87
2022-08-22T04:30:11.001Z,20.87
2022-08-22T04:31:11.038Z,21.47
2022-08-22T04:32:14.542Z,20.08
2022-08-22T04:33:11.002Z,21.07
2022-08-22T04:34:10.964Z,22.27
2022-08-22T04:35:10.918Z,20.87
2022-08-22T04:36:10.939Z,22.47
2022-08-22T04:37:10.948Z,21.07
2022-08-22T04:38:10.919Z,21.67
2022-08-22T04:39:10.918Z,22.27
2022-08-22T04:40:10.926Z,21.47
2022-08-22T04:41:10.920Z,21.27
2022-08-22T04:42:31.225Z,20.48
2022-08-22T04:43:11.900Z,21.27
2022-08-22T04:44:10.849Z,21.87
2022-08-22T04:45:10.870Z,20.08
2022-08-22T04:46:10.858Z,21.47
2022-08-22T04:47:10.831Z,22.27
2022-08-22T04:48:10.821Z,20.08
2022-08-22T04:49:10.809Z,21.87
2022-08-22T04:50:10.837Z,21.87
2022-08-22T04:51:10.801Z,21.27
2022-08-22T04:52:10.760Z,21.87
2022-08-22T04:53:10.777Z,21.87
2022-08-22T04:54:10.770Z,21.67
2022-08-22T04:55:10.761Z,21.67
2022-08-22T04:56:10.732Z,21.47
2022-08-22T04:57:10.747Z,21.47
2022-08-22T04:58:10.679Z,21.87
2022-08-22T04:59:10.711Z,21.27
2022-08-22T05:00:10.670Z,21.07
2022-08-22T05:01:10.658Z,21.07
2022-08-22T05:02:10.705Z,21.67
2022-08-22T05:03:10.672Z,21.67
2022-08-22T05:04:10.694Z,21.87
2022-08-22T05:05:13.248Z,21.27
2022-08-22T05:06:10.608Z,20.87
2022-08-22T05:07:10.614Z,21.27
2022-08-22T05:08:11.556Z,21.27
2022-08-22T05:09:15.516Z,23.06
2022-08-22T05:10:12.255Z,22.66
2022-08-22T05:11:10.588Z,21.47
2022-08-22T05:12:10.592Z,20.28
2022-08-22T05:13:10.554Z,22.07
2022-08-22T05:14:10.551Z,22.07
2022-08-22T05:15:10.529Z,21.27
2022-08-22T05:16:10.571Z,17.89
2022-08-22T05:17:10.522Z,20.87
2022-08-22T05:18:10.508Z,21.27
2022-08-22T05:19:14.426Z,21.27
2022-08-22T05:20:11.448Z,21.27
2022-08-22T05:21:11.170Z,21.87
2022-08-22T05:22:10.418Z,21.67
2022-08-22T05:23:17.258Z,20.68
2022-08-22T05:24:11.471Z,22.07
2022-08-22T05:25:12.126Z,21.67
2022-08-22T05:26:10.400Z,20.87
2022-08-22T05:27:10.369Z,22.07
2022-08-22T05:28:10.358Z,21.47
2022-08-22T05:29:10.378Z,21.87
2022-08-22T05:30:10.390Z,21.07
2022-08-22T05:31:10.452Z,21.27
2022-08-22T05:32:10.357Z,21.07
2022-08-22T05:33:10.380Z,21.27
2022-08-22T05:34:10.289Z,21.67
2022-08-22T05:35:10.268Z,21.67
2022-08-22T05:36:10.268Z,21.47
2022-08-22T05:37:10.267Z,21.07
2022-08-22T05:38:10.283Z,16.50
2022-08-22T05:39:10.331Z,22.27
2022-08-22T05:40:10.321Z,23.06
2022-08-22T05:41:10.276Z,21.47
2022-08-22T05:42:10.277Z,21.27
2022-08-22T05:43:10.224Z,21.47
2022-08-22T05:44:10.229Z,22.07
2022-08-22T05:45:12.120Z,21.47
2022-08-22T05:46:10.209Z,21.87
2022-08-22T05:47:10.219Z,21.07
2022-08-22T05:48:10.159Z,21.67
2022-08-22T05:49:10.131Z,21.07
2022-08-22T05:50:10.112Z,21.67
2022-08-22T05:51:10.100Z,21.07
2022-08-22T05:52:10.078Z,21.87
2022-08-22T05:53:10.120Z,19.88
2022-08-22T05:54:10.110Z,21.67
2022-08-22T05:55:10.080Z,21.67
2022-08-22T05:56:10.080Z,21.87
2022-08-22T05:57:10.040Z,20.87
2022-08-22T05:58:10.016Z,21.27
2022-08-22T05:59:10.026Z,21.27
2022-08-22T06:00:10.024Z,21.27
2022-08-22T06:01:10.022Z,22.66
2022-08-22T06:02:10.096Z,21.67
2022-08-22T06:03:10.020Z,21.67
2022-08-22T06:04:10.022Z,21.67
2022-08-22T06:05:12.002Z,21.87
2022-08-22T06:06:09.940Z,21.27
2022-08-22T06:07:09.941Z,21.67
2022-08-22T06:08:09.909Z,21.47
2022-08-22T06:09:09.964Z,22.07
2022-08-22T06:10:09.937Z,22.07
2022-08-22T06:11:09.902Z,21.27
2022-08-22T06:12:12.650Z,21.27
2022-08-22T06:13:11.693Z,21.47
2022-08-22T06:14:09.922Z,20.87
2022-08-22T06:15:11.624Z,22.47
2022-08-22T06:16:09.879Z,20.48
2022-08-22T06:17:09.861Z,21.87
2022-08-22T06:18:09.840Z,22.27
2022-08-22T06:19:19.388Z,21.47
2022-08-22T06:20:10.847Z,21.07
2022-08-22T06:21:09.812Z,22.07
2022-08-22T06:22:09.850Z,20.87
2022-08-22T06:23:09.762Z,21.67
2022-08-22T06:24:09.801Z,21.67
2022-08-22T06:25:09.749Z,20.87
2022-08-22T06:26:20.570Z,20.08
2022-08-22T06:27:10.731Z,21.07
2022-08-22T06:28:09.705Z,21.07
2022-08-22T06:29:09.702Z,21.87
2022-08-22T06:30:09.732Z,21.67
2022-08-22T06:31:09.716Z,21.07
2022-08-22T06:32:09.714Z,21.27
2022-08-22T06:33:12.380Z,21.47
2022-08-22T06:34:09.663Z,22.27
2022-08-22T06:35:09.715Z,21.27
2022-08-22T06:36:09.682Z,21.27
2022-08-22T06:37:09.659Z,21.47
2022-08-22T06:38:09.660Z,22.47
2022-08-22T06:39:09.644Z,20.68
2022-08-22T06:40:09.754Z,20.87
2022-08-22T06:41:09.674Z,22.47
2022-08-22T06:42:12.211Z,22.86
2022-08-22T06:43:10.555Z,21.67
2022-08-22T06:44:09.543Z,23.06
2022-08-22T06:45:09.621Z,20.87
2022-08-22T06:46:09.534Z,21.87
2022-08-22T06:47:09.600Z,21.87
2022-08-22T06:48:09.545Z,22.07
2022-08-22T06:49:09.612Z,21.87
2022-08-22T06:50:13.737Z,21.47
2022-08-22T06:51:09.486Z,23.06
2022-08-22T06:52:09.473Z,21.47
2022-08-22T06:53:09.505Z,21.87
2022-08-22T06:54:09.445Z,22.47
2022-08-22T06:55:09.516Z,21.07
2022-08-22T06:56:09.486Z,21.47
2022-08-22T06:57:09.446Z,22.07
2022-08-22T06:58:09.394Z,20.28
2022-08-22T06:59:09.373Z,21.07
2022-08-22T07:00:09.415Z,21.07
2022-08-22T07:01:11.777Z,21.07
2022-08-22T07:02:09.492Z,20.68
2022-08-22T07:03:09.365Z,20.28
2022-08-22T07:04:09.336Z,21.07
2022-08-22T07:05:09.349Z,21.27
2022-08-22T07:06:09.365Z,20.48
2022-08-22T07:07:09.324Z,20.68
2022-08-22T07:08:09.349Z,21.07
2022-08-22T07:09:09.307Z,20.48
2022-08-22T07:10:09.316Z,21.27
2022-08-22T07:11:09.276Z,21.07
2022-08-22T07:12:09.265Z,21.67
2022-08-22T07:13:09.266Z,20.68
2022-08-22T07:14:09.227Z,20.08
2022-08-22T07:15:09.350Z,20.87
2022-08-22T07:16:09.216Z,20.68
2022-08-22T07:17:09.216Z,20.87
2022-08-22T07:18:09.180Z,20.68
2022-08-22T07:19:09.231Z,17.30
2022-08-22T07:20:09.163Z,20.68
2022-08-22T07:21:09.312Z,20.68
2022-08-22T07:22:09.145Z,21.47
2022-08-22T07:23:09.156Z,20.87
2022-08-22T07:24:09.127Z,20.87
2022-08-22T07:25:09.118Z,20.68
2022-08-22T07:26:09.157Z,20.48
2022-08-22T07:27:09.097Z,20.68
2022-08-22T07:28:09.077Z,20.87
2022-08-22T07:29:11.479Z,20.48
2022-08-22T07:30:10.141Z,20.28
2022-08-22T07:31:09.098Z,21.47
2022-08-22T07:32:09.058Z,20.28
2022-08-22T07:33:26.584Z,19.88
2022-08-22T07:34:10.029Z,19.28
2022-08-22T07:35:09.018Z,20.87
2022-08-22T07:36:09.018Z,20.08
2022-08-22T07:37:08.999Z,20.87
2022-08-22T07:38:09.048Z,21.07
2022-08-22T07:39:11.201Z,20.68
2022-08-22T07:40:09.108Z,20.28
2022-08-22T07:41:08.982Z,20.68
2022-08-22T07:42:08.929Z,21.07
2022-08-22T07:43:08.939Z,19.28
2022-08-22T07:44:08.967Z,20.68
2022-08-22T07:45:08.952Z,20.87
2022-08-22T07:46:08.979Z,20.68
2022-08-22T07:47:08.889Z,20.87
2022-08-22T07:48:08.882Z,19.68
2022-08-22T07:49:10.016Z,20.68
2022-08-22T07:50:08.849Z,20.87
2022-08-22T07:51:08.830Z,19.88
2022-08-22T07:52:08.839Z,21.47
2022-08-22T07:53:08.800Z,21.67
2022-08-22T07:54:08.770Z,20.08
2022-08-22T07:55:08.775Z,20.48
2022-08-22T07:56:08.760Z,20.87
2022-08-22T07:57:08.810Z,20.87
2022-08-22T07:58:08.793Z,22.86
2022-08-22T07:59:12.812Z,20.28
2022-08-22T08:00:08.748Z,20.48
2022-08-22T08:01:08.788Z,20.08
2022-08-22T08:02:08.820Z,20.48
2022-08-22T08:03:08.768Z,20.28
2022-08-22T08:04:08.801Z,19.88
2022-08-22T08:05:08.701Z,19.88
2022-08-22T08:06:08.717Z,21.67
2022-08-22T08:07:08.691Z,19.48
2022-08-22T08:08:08.679Z,19.68
2022-08-22T08:09:09.717Z,19.68
2022-08-22T08:10:12.801Z,19.28
2022-08-22T08:11:08.639Z,20.28
2022-08-22T08:12:08.654Z,19.48
2022-08-22T08:13:08.627Z,19.28
2022-08-22T08:14:08.612Z,20.28
2022-08-22T08:15:09.582Z,19.28
2022-08-22T08:16:08.668Z,19.48
2022-08-22T08:17:08.543Z,19.68
2022-08-22T08:18:08.533Z,20.08
2022-08-22T08:19:08.513Z,19.88
2022-08-22T08:20:08.514Z,19.68
2022-08-22T08:21:08.574Z,19.48
2022-08-22T08:22:08.511Z,19.88
2022-08-22T08:23:08.531Z,19.88
2022-08-22T08:24:08.624Z,19.28
2022-08-22T08:25:08.473Z,20.28
2022-08-22T08:26:08.484Z,21.07
2022-08-22T08:27:08.444Z,19.48
2022-08-22T08:28:08.454Z,19.28
2022-08-22T08:29:08.446Z,18.09
2022-08-22T08:30:11.133Z,17.30
2022-08-22T08:31:09.430Z,18.49
2022-08-22T08:32:08.383Z,19.09
2022-08-22T08:33:24.659Z,18.29
2022-08-22T08:34:09.356Z,18.09
2022-08-22T08:35:08.346Z,17.30
2022-08-22T08:36:08.340Z,16.90
2022-08-22T08:37:08.334Z,17.30
2022-08-22T08:38:08.315Z,17.30
2022-08-22T08:39:08.296Z,17.30
2022-08-22T08:40:08.357Z,17.69
2022-08-22T08:41:08.305Z,17.69
2022-08-22T08:42:08.316Z,17.30
2022-08-22T08:43:10.732Z,16.10
2022-08-22T08:44:08.276Z,17.10
2022-08-22T08:45:08.260Z,16.30
2022-08-22T08:46:08.280Z,16.90
2022-08-22T08:47:08.236Z,16.70
2022-08-22T08:48:08.249Z,16.90
2022-08-22T08:49:08.226Z,16.70
2022-08-22T08:50:08.237Z,16.70
2022-08-22T08:51:08.212Z,16.30
2022-08-22T08:52:08.197Z,18.09
2022-08-22T08:53:08.173Z,16.10
2022-08-22T08:54:08.179Z,15.51
2022-08-22T08:55:10.505Z,16.30
2022-08-22T08:56:10.824Z,16.50
2022-08-22T08:57:08.171Z,16.50
2022-08-22T08:58:10.232Z,16.50
2022-08-22T08:59:10.188Z,16.90
2022-08-22T09:00:08.120Z,17.10
2022-08-22T09:01:08.130Z,16.70
2022-08-22T09:02:08.129Z,16.50
2022-08-22T09:03:09.075Z,16.30
2022-08-22T09:04:15.188Z,17.30
2022-08-22T09:05:09.046Z,16.50
2022-08-22T09:06:08.090Z,15.31
2022-08-22T09:07:08.042Z,16.70
2022-08-22T09:08:11.876Z,16.10
2022-08-22T09:09:08.064Z,15.11
2022-08-22T09:10:08.005Z,16.50
2022-08-22T09:11:09.789Z,16.50
2022-08-22T09:12:08.021Z,16.10
2022-08-22T09:13:11.759Z,16.30
2022-08-22T09:14:08.026Z,15.11
2022-08-22T09:15:14.166Z,16.10
2022-08-22T09:16:10.054Z,16.70
2022-08-22T09:17:07.920Z,17.30
2022-08-22T09:18:07.931Z,16.30
2022-08-22T09:19:07.891Z,16.30
2022-08-22T09:20:17.665Z,16.90
2022-08-22T09:21:08.871Z,15.71
2022-08-22T09:22:14.302Z,15.71
2022-08-22T09:23:10.893Z,16.30
2022-08-22T09:24:07.862Z,15.71
2022-08-22T09:25:07.853Z,16.70
2022-08-22T09:26:07.833Z,16.30
2022-08-22T09:27:08.617Z,15.90
2022-08-22T09:28:07.892Z,16.30
2022-08-22T09:29:07.794Z,16.10
2022-08-22T09:30:07.804Z,16.30
2022-08-22T09:31:16.805Z,16.70
2022-08-22T09:32:13.049Z,16.30
2022-08-22T09:33:07.749Z,15.51
2022-08-22T09:34:07.764Z,15.51
2022-08-22T09:35:07.744Z,16.30
2022-08-22T09:36:12.334Z,16.50
2022-08-22T09:37:07.815Z,16.30
2022-08-22T09:38:07.685Z,16.10
2022-08-22T09:39:07.695Z,17.10
2022-08-22T09:40:08.206Z,16.30
2022-08-22T09:41:07.684Z,16.50
2022-08-22T09:42:08.094Z,16.70
2022-08-22T09:43:07.656Z,15.71
2022-08-22T09:44:07.657Z,14.91
2022-08-22T09:45:07.617Z,16.70
2022-08-22T09:46:07.607Z,17.10
2022-08-22T09:47:07.612Z,15.71
2022-08-22T09:48:07.902Z,15.71
2022-08-22T09:49:07.646Z,15.31
2022-08-22T09:50:07.577Z,17.30
2022-08-22T09:51:28.584Z,15.51
2022-08-22T09:52:15.717Z,15.51
2022-08-22T09:53:08.547Z,15.71
2022-08-22T09:54:08.532Z,15.51
2022-08-22T09:55:07.971Z,16.90
2022-08-22T09:56:11.571Z,16.30
2022-08-22T09:57:08.507Z,15.90
2022-08-22T09:58:11.252Z,15.71
2022-08-22T09:59:09.796Z,15.90
2022-08-22T10:00:07.549Z,16.30
2022-08-22T10:01:07.519Z,16.50
2022-08-22T10:02:15.301Z,16.50
2022-08-22T10:03:08.490Z,16.10
2022-08-22T10:04:07.426Z,16.30
2022-08-22T10:05:07.416Z,16.30
2022-08-22T10:06:07.389Z,16.50
2022-08-22T10:07:11.710Z,15.71
2022-08-22T10:08:07.390Z,16.50
2022-08-22T10:09:08.884Z,16.30
2022-08-22T10:10:07.370Z,17.69
2022-08-22T10:11:07.341Z,15.11
2022-08-22T10:12:12.780Z,16.30
2022-08-22T10:13:10.444Z,16.10
2022-08-22T10:14:07.365Z,16.50
2022-08-22T10:15:07.357Z,16.10
2022-08-22T10:16:07.312Z,16.30
2022-08-22T10:17:07.389Z,15.71
2022-08-22T10:18:07.302Z,16.30
2022-08-22T10:19:07.272Z,15.51
2022-08-22T10:20:07.273Z,16.30
2022-08-22T10:21:07.242Z,17.10
2022-08-22T10:22:07.204Z,16.90
2022-08-22T10:23:07.229Z,16.70
2022-08-22T10:24:07.356Z,17.10
2022-08-22T10:25:07.163Z,17.30
2022-08-22T10:26:07.183Z,16.10
2022-08-22T10:27:07.168Z,15.31
2022-08-22T10:28:07.166Z,16.10
2022-08-22T10:29:07.133Z,16.50
2022-08-22T10:30:07.126Z,17.89
2022-08-22T10:31:07.116Z,16.50
2022-08-22T10:32:10.724Z,16.50
2022-08-22T10:33:08.123Z,17.50
2022-08-22T10:34:07.074Z,15.90
2022-08-22T10:35:07.083Z,15.90
2022-08-22T10:36:07.117Z,16.90
2022-08-22T10:37:07.191Z,16.70
2022-08-22T10:38:07.104Z,16.50
2022-08-22T10:39:10.926Z,16.50
2022-08-22T10:40:07.138Z,16.70
2022-08-22T10:41:09.235Z,16.70
2022-08-22T10:42:07.017Z,14.91
2022-08-22T10:43:07.008Z,16.10
2022-08-22T10:44:06.976Z,16.90
2022-08-22T10:45:06.985Z,16.30
2022-08-22T10:46:06.980Z,16.50
2022-08-22T10:47:08.886Z,16.10
2022-08-22T10:48:09.012Z,16.30
2022-08-22T10:49:07.958Z,16.90
2022-08-22T10:50:10.951Z,15.71
2022-08-22T10:51:08.780Z,16.30
2022-08-22T10:52:15.689Z,15.11
2022-08-22T10:53:07.991Z,15.11
2022-08-22T10:54:06.919Z,15.71
2022-08-22T10:55:09.978Z,15.90
2022-08-22T10:56:06.939Z,17.89
2022-08-22T10:57:07.493Z,16.50
2022-08-22T10:58:06.898Z,16.30
2022-08-22T10:59:06.870Z,16.10
2022-08-22T11:00:06.819Z,17.30
2022-08-22T11:01:38.155Z,16.30
2022-08-22T11:02:08.187Z,16.10
2022-08-22T11:03:10.698Z,14.91
2022-08-22T11:04:06.792Z,16.50
2022-08-22T11:05:06.774Z,15.71
2022-08-22T11:06:06.768Z,15.31
2022-08-22T11:07:07.698Z,16.10
2022-08-22T11:08:06.780Z,16.70
2022-08-22T11:09:06.820Z,15.31
2022-08-22T11:10:06.762Z,16.10
2022-08-22T11:11:06.744Z,15.71
2022-08-22T11:12:06.701Z,16.10
2022-08-22T11:13:06.734Z,16.50
2022-08-22T11:14:06.704Z,15.71
2022-08-22T11:15:06.678Z,15.51
2022-08-22T11:16:06.653Z,15.71
2022-08-22T11:17:20.483Z,15.31
2022-08-22T11:18:07.712Z,16.10
2022-08-22T11:19:14.934Z,16.30
2022-08-22T11:20:07.653Z,15.71
2022-08-22T11:21:07.330Z,16.70
2022-08-22T11:22:06.594Z,15.71
2022-08-22T11:23:06.603Z,15.90
2022-08-22T11:24:06.602Z,15.31
2022-08-22T11:25:07.594Z,15.71
2022-08-22T11:26:06.624Z,14.91
2022-08-22T11:27:07.193Z,16.30
2022-08-22T11:28:06.603Z,15.51
2022-08-22T11:29:13.392Z,15.71
2022-08-22T11:30:07.593Z,15.11
2022-08-22T11:31:07.154Z,16.50
2022-08-22T11:32:07.886Z,16.50
2022-08-22T11:33:06.534Z,15.90
2022-08-22T11:34:06.505Z,17.50
2022-08-22T11:35:09.056Z,15.71
2022-08-22T11:36:06.505Z,15.51
2022-08-22T11:37:11.011Z,14.31
2022-08-22T11:38:10.949Z,15.90
2022-08-22T11:39:06.555Z,15.51
2022-08-22T11:40:07.555Z,15.71
2022-08-22T11:41:07.166Z,16.10
2022-08-22T11:42:06.834Z,15.11
2022-08-22T11:43:07.351Z,15.90
2022-08-22T11:44:07.409Z,15.90
2022-08-22T11:45:06.362Z,15.71
2022-08-22T11:46:06.650Z,15.90
2022-08-22T11:47:06.369Z,15.51
2022-08-22T11:48:06.398Z,16.30
2022-08-22T11:49:06.377Z,14.91
2022-08-22T11:50:13.820Z,15.90
2022-08-22T11:51:13.223Z,15.90
2022-08-22T11:52:07.353Z,18.09
2022-08-22T11:53:07.832Z,15.71
2022-08-22T11:54:06.300Z,15.71
2022-08-22T11:55:07.161Z,15.51
2022-08-22T11:56:06.242Z,15.90
2022-08-22T11:57:06.230Z,16.50
2022-08-22T11:58:06.230Z,16.90
2022-08-22T11:59:06.238Z,16.10
2022-08-22T12:00:06.223Z,15.90
2022-08-22T12:01:06.184Z,16.90
2022-08-22T12:02:06.250Z,15.90
2022-08-22T12:03:06.261Z,16.10
2022-08-22T12:04:06.194Z,15.90
2022-08-22T12:05:06.181Z,15.51
2022-08-22T12:06:06.160Z,14.91
2022-08-22T12:07:06.152Z,16.10
2022-08-22T12:08:06.150Z,15.51
2022-08-22T12:09:06.152Z,15.51
2022-08-22T12:10:06.173Z,16.50
2022-08-22T12:11:07.182Z,16.30
2022-08-22T12:12:06.122Z,15.51
2022-08-22T12:13:06.146Z,15.71
2022-08-22T12:14:06.807Z,15.51
2022-08-22T12:15:08.951Z,16.70
2022-08-22T12:16:06.085Z,15.31
2022-08-22T12:17:06.104Z,16.70
2022-08-22T12:18:06.088Z,15.90
2022-08-22T12:19:06.074Z,14.31
2022-08-22T12:20:16.371Z,16.30
2022-08-22T12:21:07.072Z,15.90
2022-08-22T12:22:06.046Z,16.90
2022-08-22T12:23:06.144Z,15.71
2022-08-22T12:24:11.073Z,14.71
2022-08-22T12:25:07.036Z,15.71
2022-08-22T12:26:10.952Z,14.71
2022-08-22T12:27:08.032Z,14.31
2022-08-22T12:28:06.016Z,14.71
2022-08-22T12:29:05.987Z,14.71
2022-08-22T12:30:12.865Z,15.31
2022-08-22T12:31:06.941Z,14.71
2022-08-22T12:32:05.938Z,14.31
2022-08-22T12:33:05.930Z,14.12
2022-08-22T12:34:06.463Z,14.51
2022-08-22T12:35:14.010Z,14.71
2022-08-22T12:36:06.898Z,14.71
2022-08-22T12:37:06.929Z,13.32
2022-08-22T12:38:06.223Z,14.31
2022-08-22T12:39:08.261Z,14.71
2022-08-22T12:40:05.927Z,14.12
2022-08-22T12:41:07.945Z,14.31
2022-08-22T12:42:05.831Z,14.71
2022-08-22T12:43:06.553Z,13.72
2022-08-22T12:44:05.849Z,14.12
2022-08-22T12:45:05.820Z,15.11
2022-08-22T12:46:05.867Z,13.92
2022-08-22T12:47:06.940Z,14.51